Time;durP1;ratioP1;P1;durP2;ratioP2;P2;SDS_P1;SDS_P2;PMS_P1;PMS_P2;Temp;Humidity;BMP_temperature;BMP_pressure;BME280_temperature;BME280_humidity;BME280_pressure;Samples;Min_cycle;Max_cycle;Signal;HPM_P1;HPM_P2
2021/04/05 00:00:36;;;;;;;12.85;5.07;;;15.30;55.50;;;;;;5077918;28;20040;-75
2021/04/05 00:03:02;;;;;;;11.95;5.13;;;15.30;55.50;;;;;;5097180;28;20040;-73
2021/04/05 00:05:31;;;;;;;12.75;5.50;;;15.30;55.70;;;;;;5094143;28;20347;-74
2021/04/05 00:07:57;;;;;;;15.20;5.22;;;15.20;55.70;;;;;;5078811;28;20101;-73
2021/04/05 00:10:37;;;;;;;15.10;5.28;;;15.30;55.80;;;;;;5096191;28;20335;-73
2021/04/05 00:13:07;;;;;;;16.63;5.45;;;15.20;55.70;;;;;;5097912;28;20447;-72
2021/04/05 00:15:33;;;;;;;11.25;4.95;;;15.20;55.80;;;;;;5093778;28;20032;-72
2021/04/05 00:17:59;;;;;;;11.88;5.32;;;15.20;55.90;;;;;;5077978;28;20117;-73
2021/04/05 00:20:29;;;;;;;17.05;5.57;;;15.20;55.90;;;;;;5093583;28;20367;-72
2021/04/05 00:22:55;;;;;;;15.38;5.65;;;15.20;56.00;;;;;;5098011;28;20061;-72
2021/04/05 00:25:21;;;;;;;10.82;5.45;;;15.20;55.90;;;;;;5094738;28;20044;-72
2021/04/05 00:27:47;;;;;;;15.50;6.43;;;15.20;56.50;;;;;;5091323;28;20115;-74
2021/04/05 00:30:24;;;;;;;12.05;5.53;;;15.20;55.90;;;;;;5097546;28;20071;-72
2021/04/05 00:32:50;;;;;;;13.43;6.25;;;15.20;56.00;;;;;;5079640;28;20044;-72
2021/04/05 00:35:21;;;;;;;15.82;6.30;;;15.20;56.00;;;;;;5091854;28;20040;-75
2021/04/05 00:37:48;;;;;;;12.50;5.97;;;15.20;56.00;;;;;;5077258;28;20044;-72
2021/04/05 00:40:17;;;;;;;13.70;5.95;;;15.10;56.00;;;;;;5077364;28;20144;-73
2021/04/05 00:42:45;;;;;;;12.82;6.13;;;15.20;55.90;;;;;;5077756;28;20043;-72
2021/04/05 00:45:14;;;;;;;13.38;5.63;;;15.20;56.00;;;;;;5078761;28;20125;-74
2021/04/05 00:47:46;;;;;;;12.68;5.82;;;15.10;56.10;;;;;;5097610;28;20339;-72
2021/04/05 00:50:21;;;;;;;14.55;6.70;;;15.10;56.10;;;;;;5097218;28;20451;-72
2021/04/05 00:52:51;;;;;;;17.17;7.43;;;15.10;56.00;;;;;;5097173;28;20040;-73
2021/04/05 00:55:17;;;;;;;14.30;6.43;;;15.10;55.90;;;;;;5096127;28;20117;-74
2021/04/05 00:57:43;;;;;;;14.82;6.70;;;15.10;55.90;;;;;;5097649;28;20040;-73
2021/04/05 01:00:24;;;;;;;17.40;6.97;;;15.10;56.00;;;;;;5095264;28;20078;-73
2021/04/05 01:02:50;;;;;;;16.27;6.78;;;15.10;55.90;;;;;;5095043;28;20039;-72
2021/04/05 01:05:17;;;;;;;13.57;6.63;;;15.10;56.00;;;;;;5095895;28;20058;-72
2021/04/05 01:07:43;;;;;;;14.77;6.78;;;15.10;56.10;;;;;;5077000;28;20060;-73
2021/04/05 01:10:10;;;;;;;17.38;6.25;;;15.10;56.10;;;;;;5076865;28;20040;-72
2021/04/05 01:12:38;;;;;;;15.13;6.88;;;15.10;56.10;;;;;;5076779;28;20048;-72
2021/04/05 01:15:09;;;;;;;16.48;6.78;;;15.10;56.10;;;;;;5076776;28;20072;-72
2021/04/05 01:17:35;;;;;;;13.85;6.55;;;15.10;56.10;;;;;;5094878;28;20097;-74
2021/04/05 01:20:04;;;;;;;16.13;7.00;;;15.10;56.10;;;;;;5097334;28;20044;-72
2021/04/05 01:22:31;;;;;;;15.13;6.60;;;15.10;56.00;;;;;;5096707;28;20059;-73
2021/04/05 01:24:57;;;;;;;18.52;6.90;;;15.10;56.00;;;;;;5096382;28;20052;-74
2021/04/05 01:27:22;;;;;;;14.48;6.50;;;15.10;56.00;;;;;;5095626;28;20042;-73
2021/04/05 01:29:48;;;;;;;19.05;6.90;;;15.10;56.00;;;;;;5085916;28;20044;-73
2021/04/05 01:32:14;;;;;;;17.27;7.07;;;15.10;56.00;;;;;;5075978;28;20186;-73
2021/04/05 01:34:40;;;;;;;12.40;6.80;;;15.10;56.00;;;;;;5075602;28;20051;-73
2021/04/05 01:37:06;;;;;;;15.98;7.18;;;15.00;55.90;;;;;;5090555;28;20044;-75
2021/04/05 01:39:36;;;;;;;16.23;6.88;;;15.10;56.00;;;;;;5096318;28;20417;-72
2021/04/05 01:42:03;;;;;;;15.50;7.15;;;15.10;55.90;;;;;;5094618;28;20045;-73
2021/04/05 01:44:32;;;;;;;17.10;6.50;;;15.00;55.90;;;;;;5095837;28;20040;-73
2021/04/05 01:46:59;;;;;;;14.52;6.00;;;15.00;55.80;;;;;;5094478;28;20441;-75
2021/04/05 01:49:24;;;;;;;11.48;6.55;;;15.00;55.90;;;;;;5096164;28;20136;-72
2021/04/05 01:51:50;;;;;;;17.52;6.10;;;15.00;55.90;;;;;;5095816;28;20134;-73
2021/04/05 01:54:16;;;;;;;15.93;6.70;;;15.00;55.90;;;;;;5095937;28;20078;-73
2021/04/05 01:56:43;;;;;;;15.40;6.28;;;15.00;55.90;;;;;;5084725;28;20040;-73
2021/04/05 01:59:10;;;;;;;13.82;6.10;;;15.00;55.90;;;;;;5076012;28;20101;-72
2021/04/05 02:01:36;;;;;;;14.50;5.93;;;15.00;55.80;;;;;;5075925;28;20392;-72
2021/04/05 02:04:03;;;;;;;14.57;7.18;;;15.00;55.90;;;;;;5075651;28;20079;-73
2021/04/05 02:06:34;;;;;;;12.88;6.50;;;15.00;55.90;;;;;;5085088;28;20131;-73
2021/04/05 02:09:00;;;;;;;15.07;6.55;;;15.00;55.90;;;;;;5096130;28;20035;-72
2021/04/05 02:11:31;;;;;;;13.35;5.80;;;15.00;55.90;;;;;;5094226;28;20044;-73
2021/04/05 02:13:59;;;;;;;14.45;6.60;;;15.00;55.90;;;;;;5096104;28;20044;-73
2021/04/05 02:16:26;;;;;;;12.73;5.63;;;15.00;55.90;;;;;;5086536;28;20094;-74
2021/04/05 02:18:53;;;;;;;12.95;6.80;;;15.00;55.90;;;;;;5075624;28;20036;-73
2021/04/05 02:21:22;;;;;;;12.93;6.25;;;15.00;55.90;;;;;;5075614;28;20043;-71
2021/04/05 02:23:49;;;;;;;14.15;6.15;;;15.00;55.90;;;;;;5085992;28;20039;-72
2021/04/05 02:26:23;;;;;;;12.98;5.43;;;14.90;55.80;;;;;;5095124;28;20491;-72
2021/04/05 02:28:51;;;;;;;;;;;14.90;55.90;;;;;;5092205;28;20390;-72
2021/04/05 02:31:19;;;;;;;15.48;6.18;;;15.00;55.90;;;;;;5075211;28;20334;-75
2021/04/05 02:33:54;;;;;;;14.80;6.53;;;14.90;56.00;;;;;;5075387;28;20440;-72
2021/04/05 02:36:23;;;;;;;13.75;6.75;;;14.90;56.00;;;;;;5082706;28;20092;-74
2021/04/05 02:38:51;;;;;;;11.70;6.47;;;14.90;56.60;;;;;;5095854;28;20067;-72
2021/04/05 02:41:19;;;;;;;13.05;5.97;;;14.90;55.90;;;;;;5095318;28;20347;-73
2021/04/05 02:43:46;;;;;;;13.75;6.45;;;14.90;55.90;;;;;;5095399;28;20040;-72
2021/04/05 02:46:18;;;;;;;16.23;6.60;;;14.90;56.00;;;;;;5088810;28;20055;-72
2021/04/05 02:48:48;;;;;;;12.10;5.57;;;14.90;55.90;;;;;;5075320;28;20036;-72
2021/04/05 02:51:15;;;;;;;11.13;5.05;;;14.90;55.90;;;;;;5086224;28;20210;-72
2021/04/05 02:54:02;;;;;;;16.58;6.18;;;14.90;55.90;;;;;;5094603;28;20048;-73
2021/04/05 02:56:29;;;;;;;11.40;5.80;;;14.90;55.90;;;;;;5093790;28;20514;-73
2021/04/05 02:58:57;;;;;;;14.38;5.53;;;14.90;55.90;;;;;;5095434;28;20059;-73
2021/04/05 03:01:25;;;;;;;14.48;5.72;;;14.90;55.90;;;;;;5094362;28;20051;-73
2021/04/05 03:03:57;;;;;;;9.88;4.93;;;14.90;56.00;;;;;;5095104;28;20054;-73
2021/04/05 03:06:24;;;;;;;11.75;5.25;;;14.80;56.10;;;;;;5094383;28;20442;-72
2021/04/05 03:08:50;;;;;;;10.82;4.60;;;14.80;56.10;;;;;;5095482;28;20044;-74
2021/04/05 03:11:20;;;;;;;13.00;4.97;;;14.80;56.20;;;;;;5094923;28;20040;-72
2021/04/05 03:13:46;;;;;;;12.75;5.30;;;14.80;56.20;;;;;;5095428;28;20115;-73
2021/04/05 03:16:24;;;;;;;8.07;4.07;;;14.80;56.30;;;;;;5094966;28;20055;-72
2021/04/05 03:18:52;;;;;;;11.10;4.70;;;14.80;56.40;;;;;;5094522;28;20040;-73
2021/04/05 03:21:21;;;;;;;10.05;4.60;;;14.80;56.50;;;;;;5094916;28;20445;-72
2021/04/05 03:23:47;;;;;;;9.13;4.07;;;14.80;56.50;;;;;;5095062;28;20145;-73
2021/04/05 03:26:13;;;;;;;9.57;3.67;;;14.80;56.60;;;;;;5094908;28;20404;-73
2021/04/05 03:28:39;;;;;;;9.25;4.18;;;14.80;57.30;;;;;;5094843;28;20040;-72
2021/04/05 03:31:11;;;;;;;10.57;3.60;;;14.80;56.60;;;;;;5094028;28;20059;-74
2021/04/05 03:33:58;;;;;;;8.85;4.03;;;14.80;56.60;;;;;;5095342;28;20036;-72
2021/04/05 03:36:30;;;;;;;7.90;3.30;;;14.80;56.40;;;;;;5094737;28;20044;-72
2021/04/05 03:38:57;;;;;;;12.00;3.33;;;14.80;56.50;;;;;;5095100;28;20039;-72
2021/04/05 03:41:37;;;;;;;6.82;3.03;;;14.70;56.40;;;;;;5095188;28;20358;-73
2021/04/05 03:44:19;;;;;;;8.05;3.30;;;14.70;56.40;;;;;;5094584;28;20409;-72
2021/04/05 03:46:47;;;;;;;6.78;3.25;;;14.70;56.40;;;;;;5094824;28;20048;-72
2021/04/05 03:49:34;;;;;;;7.93;3.53;;;14.70;56.50;;;;;;5094795;28;20043;-72
2021/04/05 03:52:09;;;;;;;7.10;3.20;;;14.70;56.50;;;;;;5094327;28;20137;-73
2021/04/05 03:54:54;;;;;;;7.18;2.97;;;14.70;56.50;;;;;;5094313;28;20048;-73
2021/04/05 03:57:28;;;;;;;7.38;3.08;;;14.70;56.40;;;;;;5076724;28;20035;-74
2021/04/05 03:59:57;;;;;;;7.40;2.55;;;14.70;56.40;;;;;;5096193;28;20454;-71
2021/04/05 04:02:31;;;;;;;6.57;2.90;;;14.70;56.40;;;;;;5097298;28;20071;-72
2021/04/05 04:05:09;;;;;;;8.47;2.47;;;14.70;56.30;;;;;;5077981;28;20033;-73
2021/04/05 04:07:41;;;;;;;6.28;2.92;;;14.70;56.40;;;;;;5093952;28;20348;-72
2021/04/05 04:10:12;;;;;;;5.20;2.53;;;14.70;56.40;;;;;;5099028;28;20072;-74
2021/04/05 04:12:42;;;;;;;7.47;2.28;;;14.70;56.40;;;;;;5097733;28;20423;-73
2021/04/05 04:15:10;;;;;;;8.25;2.40;;;14.70;56.50;;;;;;5098504;28;20040;-73
2021/04/05 04:17:37;;;;;;;6.72;2.20;;;14.70;56.70;;;;;;5097624;28;20055;-72
2021/04/05 04:20:13;;;;;;;5.78;2.28;;;14.70;56.60;;;;;;5098200;28;20044;-73
2021/04/05 04:22:40;;;;;;;6.38;1.95;;;14.70;56.60;;;;;;5098554;28;20040;-74
2021/04/05 04:25:07;;;;;;;3.90;1.80;;;14.70;56.60;;;;;;5098449;28;20105;-74
2021/04/05 04:27:34;;;;;;;4.13;1.70;;;14.70;56.60;;;;;;5097815;28;20040;-72
2021/04/05 04:30:01;;;;;;;6.82;2.22;;;14.70;56.70;;;;;;5097609;28;20443;-73
2021/04/05 04:32:26;;;;;;;4.93;2.10;;;14.70;56.60;;;;;;5096997;28;20050;-72
2021/04/05 04:34:53;;;;;;;4.63;1.83;;;14.60;56.50;;;;;;5097485;28;20036;-72
2021/04/05 04:37:19;;;;;;;5.85;2.00;;;14.60;56.50;;;;;;5096889;28;20039;-74
2021/04/05 04:39:46;;;;;;;4.55;1.88;;;14.60;56.50;;;;;;5097924;28;20044;-72
2021/04/05 04:42:12;;;;;;;5.05;1.90;;;14.60;56.50;;;;;;5097782;28;20039;-73
2021/04/05 04:44:39;;;;;;;4.15;1.70;;;14.60;56.50;;;;;;5097201;28;20067;-73
2021/04/05 04:47:05;;;;;;;3.88;1.50;;;14.60;56.50;;;;;;5097276;28;20104;-74
2021/04/05 04:49:31;;;;;;;3.80;1.70;;;14.60;56.40;;;;;;5098000;28;20127;-74
2021/04/05 04:51:57;;;;;;;6.63;1.63;;;14.60;56.30;;;;;;5096914;28;20184;-73
2021/04/05 04:54:24;;;;;;;5.65;1.75;;;14.60;56.30;;;;;;5097909;28;20039;-72
2021/04/05 04:56:51;;;;;;;5.80;1.38;;;14.60;56.30;;;;;;5096823;28;20040;-73
2021/04/05 04:59:18;;;;;;;12.38;1.60;;;14.60;56.20;;;;;;5096142;28;20124;-75
2021/04/05 05:01:45;;;;;;;10.65;1.90;;;14.60;56.20;;;;;;5097165;28;20047;-73
2021/04/05 05:04:26;;;;;;;11.05;2.15;;;14.60;55.80;;;;;;5097355;28;20032;-75
2021/04/05 05:06:54;;;;;;;10.63;1.88;;;14.50;55.70;;;;;;5097182;28;20374;-72
2021/04/05 05:09:21;;;;;;;5.95;1.35;;;14.50;56.40;;;;;;5095877;28;20057;-76
2021/04/05 05:11:47;;;;;;;7.00;1.60;;;14.50;57.40;;;;;;5096757;28;20073;-77
2021/04/05 05:14:14;;;;;;;9.52;1.33;;;14.50;57.60;;;;;;5097007;28;20148;-73
2021/04/05 05:16:41;;;;;;;11.48;1.98;;;14.50;57.60;;;;;;5097565;28;20032;-71
2021/04/05 05:19:08;;;;;;;6.75;1.27;;;14.60;58.20;;;;;;5095933;28;20056;-70
2021/04/05 05:21:42;;;;;;;6.63;1.20;;;14.70;57.50;;;;;;5097199;28;20367;-70
2021/04/05 05:24:12;;;;;;;12.30;1.35;;;14.90;57.80;;;;;;5096765;28;20180;-69
2021/04/05 05:26:39;;;;;;;9.45;1.60;;;15.10;58.10;;;;;;5097013;28;20052;-70
2021/04/05 05:29:10;;;;;;;15.52;1.73;;;15.20;58.60;;;;;;5095867;28;20059;-69
2021/04/05 05:31:43;;;;;;;10.57;2.15;;;15.50;58.40;;;;;;5095836;28;20043;-70
2021/04/05 05:34:13;;;;;;;12.35;2.10;;;15.60;59.40;;;;;;5096406;28;20082;-71
2021/04/05 05:36:41;;;;;;;13.50;2.17;;;15.80;59.60;;;;;;5096492;28;20040;-69
2021/04/05 05:39:08;;;;;;;12.60;1.88;;;15.90;60.30;;;;;;5096139;28;20039;-70
2021/04/05 05:42:04;;;;;;;14.20;2.45;;;16.10;60.50;;;;;;5096740;28;20066;-70
2021/04/05 05:45:04;;;;;;;11.40;2.28;;;16.20;61.00;;;;;;5096084;28;20062;-71
2021/04/05 05:47:34;;;;;;;12.15;1.95;;;16.20;60.30;;;;;;5096161;28;20101;-72
2021/04/05 05:50:24;;;;;;;10.68;1.83;;;16.30;59.60;;;;;;5096109;28;20089;-71
2021/04/05 05:53:08;;;;;;;11.02;2.20;;;16.30;59.70;;;;;;5096473;28;20416;-71
2021/04/05 05:56:06;;;;;;;15.15;2.15;;;16.20;58.90;;;;;;5096113;28;20044;-72
2021/04/05 05:58:56;;;;;;;13.38;2.22;;;16.40;59.90;;;;;;5095390;28;20051;-72
2021/04/05 06:01:45;;;;;;;5.28;1.17;;;16.50;59.70;;;;;;5096872;28;20113;-71
2021/04/05 06:04:39;;;;;;;9.57;1.77;;;16.00;51.60;;;;;;5096697;28;20123;-72
2021/04/05 06:07:24;;;;;;;11.18;2.17;;;16.10;59.50;;;;;;5095764;28;20052;-71
2021/04/05 06:10:11;;;;;;;10.27;1.73;;;16.40;59.60;;;;;;5078497;28;20062;-71
2021/04/05 06:13:09;;;;;;;10.32;1.83;;;16.60;58.90;;;;;;5096426;28;20047;-73
2021/04/05 06:15:52;;;;;;;7.00;1.50;;;16.90;58.50;;;;;;5067683;28;20047;-72
2021/04/05 06:18:18;;;;;;;7.13;1.50;;;17.00;57.80;;;;;;5095380;28;20035;-73
2021/04/05 06:21:16;;;;;;;13.95;2.30;;;17.10;57.60;;;;;;5095619;28;20450;-71
2021/04/05 06:23:53;;;;;;;9.43;2.03;;;17.20;57.40;;;;;;5023432;28;20065;-71
2021/04/05 06:26:50;;;;;;;10.82;1.75;;;17.30;57.10;;;;;;5095585;28;20039;-72
2021/04/05 06:29:22;;;;;;;9.35;1.65;;;17.30;57.10;;;;;;5094664;28;20114;-71
2021/04/05 06:31:51;;;;;;;9.30;2.10;;;17.30;57.00;;;;;;5095218;28;20435;-71
2021/04/05 06:34:34;;;;;;;11.20;1.58;;;17.40;57.00;;;;;;5095358;28;20384;-71
2021/04/05 06:37:09;;;;;;;9.43;1.77;;;17.40;56.40;;;;;;5095013;28;20044;-72
2021/04/05 06:39:45;;;;;;;7.75;1.75;;;16.90;54.40;;;;;;5091775;28;20537;-72
2021/04/05 06:42:23;;;;;;;13.25;1.90;;;17.10;56.40;;;;;;5095500;28;20047;-73
2021/04/05 06:45:15;;;;;;;9.60;1.95;;;17.20;56.30;;;;;;5094180;28;20433;-73
2021/04/05 06:48:12;;;;;;;4.72;0.95;;;17.40;56.10;;;;;;5090542;28;20439;-74
2021/04/05 06:50:46;;;;;;;13.18;1.80;;;17.50;55.20;;;;;;5093759;28;20173;-72
2021/04/05 06:53:18;;;;;;;;;;;17.60;55.20;;;;;;5091015;28;20032;-73
2021/04/05 06:56:02;;;;;;;12.77;1.67;;;17.70;54.40;;;;;;5090075;28;20003;-72
2021/04/05 06:59:06;;;;;;;12.48;1.55;;;17.70;55.10;;;;;;5094901;28;20057;-74
2021/04/05 07:01:37;;;;;;;12.68;1.70;;;17.80;55.40;;;;;;5094636;28;20055;-73
2021/04/05 07:04:07;;;;;;;9.15;1.77;;;17.90;53.20;;;;;;5087392;28;20396;-73
2021/04/05 07:07:08;;;;;;;8.93;1.65;;;17.90;55.50;;;;;;5079900;28;20039;-72
2021/04/05 07:09:43;;;;;;;6.90;1.00;;;17.90;55.20;;;;;;5090584;28;20050;-72
2021/04/05 07:12:49;;;;;;;8.80;1.88;;;17.90;55.00;;;;;;5089242;28;20339;-73
2021/04/05 07:15:42;;;;;;;5.72;1.10;;;17.90;54.20;;;;;;4984501;28;20050;-71
2021/04/05 07:18:40;;;;;;;10.23;1.58;;;18.00;54.40;;;;;;4981049;28;20476;-71
2021/04/05 07:21:32;;;;;;;9.98;1.20;;;18.00;55.00;;;;;;5060333;28;20351;-71
2021/04/05 07:24:24;;;;;;;4.93;1.00;;;18.00;55.20;;;;;;5074816;28;20035;-72
2021/04/05 07:27:19;;;;;;;6.30;0.90;;;17.90;55.30;;;;;;5074468;28;20045;-71
2021/04/05 07:30:10;;;;;;;9.63;1.35;;;17.90;55.60;;;;;;5073039;28;20071;-72
2021/04/05 07:33:06;;;;;;;13.27;1.58;;;17.80;55.70;;;;;;5087487;28;20102;-73
2021/04/05 07:35:53;;;;;;;5.65;1.02;;;17.90;55.80;;;;;;5094858;28;20036;-73
2021/04/05 07:38:18;;;;;;;8.50;1.05;;;17.90;55.60;;;;;;5082444;28;20397;-71
2021/04/05 07:40:57;;;;;;;7.82;1.48;;;17.90;55.30;;;;;;5089557;28;20059;-72
2021/04/05 07:43:43;;;;;;;8.52;1.20;;;17.90;55.40;;;;;;5097981;28;20039;-72
2021/04/05 07:46:17;;;;;;;14.55;1.35;;;17.50;55.40;;;;;;5097061;28;20127;-72
2021/04/05 07:48:58;;;;;;;7.57;1.40;;;17.60;55.70;;;;;;5096428;28;20389;-72
2021/04/05 07:51:42;;;;;;;8.77;1.67;;;17.60;55.70;;;;;;5099284;28;20058;-73
2021/04/05 07:54:09;;;;;;;7.68;1.00;;;17.60;55.70;;;;;;5118579;28;20046;-72
2021/04/05 07:56:51;;;;;;;12.00;1.40;;;17.60;55.60;;;;;;5108129;28;20115;-72
2021/04/05 07:59:25;;;;;;;14.40;1.85;;;17.60;55.40;;;;;;5112766;28;20407;-72
2021/04/05 08:02:13;;;;;;;10.55;1.13;;;17.10;51.80;;;;;;5109174;28;20054;-72
2021/04/05 08:05:04;;;;;;;11.50;1.90;;;17.20;55.30;;;;;;5097783;28;20040;-74
2021/04/05 08:07:59;;;;;;;7.53;1.30;;;16.90;55.00;;;;;;5097107;28;20063;-72
2021/04/05 08:10:49;;;;;;;8.48;1.42;;;17.00;55.70;;;;;;5077607;28;20064;-72
2021/04/05 08:13:27;;;;;;;7.43;1.20;;;17.10;55.40;;;;;;5077347;28;20054;-73
2021/04/05 08:16:20;;;;;;;10.95;1.60;;;17.20;55.50;;;;;;5086706;28;20313;-73
2021/04/05 08:19:10;;;;;;;8.27;1.67;;;17.30;55.30;;;;;;5097682;28;20044;-74
2021/04/05 08:22:01;;;;;;;5.43;1.33;;;17.30;55.10;;;;;;5097585;28;20063;-72
2021/04/05 08:24:38;;;;;;;8.65;1.30;;;17.20;55.10;;;;;;5097838;28;20076;-75
2021/04/05 08:27:15;;;;;;;8.30;1.23;;;17.30;55.00;;;;;;5094523;28;20035;-72
2021/04/05 08:30:06;;;;;;;13.32;1.55;;;17.30;55.40;;;;;;5097434;28;20064;-72
2021/04/05 08:32:42;;;;;;;10.25;1.60;;;17.40;54.80;;;;;;5097533;28;20351;-73
2021/04/05 08:35:35;;;;;;;12.50;1.38;;;17.40;54.60;;;;;;5096874;28;20541;-72
2021/04/05 08:38:08;;;;;;;9.38;1.98;;;17.50;54.30;;;;;;5110658;28;20063;-72
2021/04/05 08:40:38;;;;;;;8.75;1.60;;;17.50;54.30;;;;;;5092432;28;20046;-74
2021/04/05 08:43:15;;;;;;;5.13;1.08;;;17.60;54.30;;;;;;5090779;28;20346;-73
2021/04/05 08:45:57;;;;;;;5.00;1.30;;;17.60;54.30;;;;;;5081483;28;20112;-72
2021/04/05 08:48:27;;;;;;;;;;;17.60;54.10;;;;;;5089633;28;20050;-72
2021/04/05 08:51:09;;;;;;;8.07;1.60;;;17.70;54.00;;;;;;5094462;28;20339;-72
2021/04/05 08:53:39;;;;;;;6.70;1.48;;;17.70;53.90;;;;;;5092712;28;20059;-72
2021/04/05 08:56:07;;;;;;;6.35;0.90;;;17.80;53.80;;;;;;5093093;28;20059;-74
2021/04/05 08:58:40;;;;;;;8.45;1.48;;;17.90;53.50;;;;;;5096127;28;20382;-72
2021/04/05 09:01:11;;;;;;;10.27;1.30;;;17.70;52.70;;;;;;5082703;28;20099;-72
2021/04/05 09:03:42;;;;;;;11.80;1.80;;;17.80;53.40;;;;;;5076273;28;20428;-70
2021/04/05 09:06:14;;;;;;;13.25;2.28;;;17.90;53.60;;;;;;5089294;28;20036;-71
2021/04/05 09:08:44;;;;;;;6.65;1.50;;;18.00;53.60;;;;;;5096257;28;20078;-71
2021/04/05 09:11:12;;;;;;;9.38;1.42;;;18.00;52.90;;;;;;5087677;28;20985;-73
2021/04/05 09:14:02;;;;;;;6.97;1.17;;;18.10;52.60;;;;;;5076572;28;20173;-71
2021/04/05 09:16:40;;;;;;;8.52;1.05;;;18.10;52.60;;;;;;5094012;28;20431;-71
2021/04/05 09:19:12;;;;;;;8.68;1.27;;;18.10;52.20;;;;;;5096108;28;20161;-71
2021/04/05 09:22:03;;;;;;;11.35;1.15;;;17.90;52.30;;;;;;5082146;28;20044;-71
2021/04/05 09:24:49;;;;;;;8.75;0.98;;;17.80;48.20;;;;;;5094814;28;20051;-71
2021/04/05 09:27:53;;;;;;;8.38;1.08;;;17.90;52.60;;;;;;5108475;28;20040;-71
2021/04/05 09:30:51;;;;;;;6.82;1.23;;;17.90;52.10;;;;;;5093446;28;20032;-70
2021/04/05 09:33:17;;;;;;;5.90;1.25;;;17.90;51.80;;;;;;5095156;28;20416;-71
2021/04/05 09:35:50;;;;;;;6.75;1.50;;;17.90;52.00;;;;;;5093957;28;20040;-71
2021/04/05 09:38:46;;;;;;;4.68;0.85;;;17.90;51.90;;;;;;5095214;28;20039;-70
2021/04/05 09:41:30;;;;;;;6.93;1.48;;;18.00;51.00;;;;;;5094258;28;20451;-71
2021/04/05 09:44:18;;;;;;;6.00;1.50;;;18.00;49.20;;;;;;5080882;28;20055;-71
2021/04/05 09:47:01;;;;;;;5.00;0.93;;;17.90;49.50;;;;;;5090964;28;20119;-70
2021/04/05 09:50:01;;;;;;;9.27;1.13;;;17.90;49.30;;;;;;5094878;28;20043;-73
2021/04/05 09:52:56;;;;;;;7.88;1.10;;;17.90;49.90;;;;;;5074742;28;20052;-71
2021/04/05 09:55:36;;;;;;;5.47;1.23;;;17.70;49.70;;;;;;5080078;28;20044;-73
2021/04/05 09:58:17;;;;;;;4.25;0.60;;;17.80;50.00;;;;;;5094868;28;20084;-71
2021/04/05 10:00:51;;;;;;;8.18;0.98;;;17.80;49.70;;;;;;5092436;28;20040;-72
2021/04/05 10:03:19;;;;;;;5.35;1.17;;;17.80;49.40;;;;;;5095378;28;20064;-72
2021/04/05 10:05:47;;;;;;;6.15;0.90;;;17.80;48.90;;;;;;5093986;28;20040;-72
2021/04/05 10:08:33;;;;;;;7.32;0.70;;;17.20;45.00;;;;;;5094939;28;20043;-70
2021/04/05 10:11:03;;;;;;;9.80;1.25;;;16.60;45.40;;;;;;5092859;28;20059;-73
2021/04/05 10:13:29;;;;;;;7.95;1.30;;;16.20;47.20;;;;;;5095516;28;20115;-71
2021/04/05 10:15:58;;;;;;;8.10;1.02;;;16.00;49.40;;;;;;5095380;28;20052;-72
2021/04/05 10:18:25;;;;;;;6.72;1.25;;;15.80;49.50;;;;;;5094364;28;20051;-71
2021/04/05 10:20:53;;;;;;;4.85;1.08;;;15.70;50.60;;;;;;5093501;28;20066;-72
2021/04/05 10:23:22;;;;;;;5.97;0.95;;;15.60;51.10;;;;;;5076971;28;20040;-73
2021/04/05 10:25:57;;;;;;;8.45;1.17;;;15.50;50.60;;;;;;5094514;28;20043;-72
2021/04/05 10:28:27;;;;;;;10.05;0.70;;;15.50;53.00;;;;;;5094889;28;20123;-71
2021/04/05 10:30:57;;;;;;;8.02;0.90;;;15.60;56.40;;;;;;5093089;28;20430;-73
2021/04/05 10:33:41;;;;;;;5.75;0.80;;;16.20;57.60;;;;;;5095705;28;20060;-73
2021/04/05 10:36:10;;;;;;;6.80;1.10;;;16.70;56.10;;;;;;5077249;28;20428;-73
2021/04/05 10:38:37;;;;;;;6.30;0.77;;;17.10;55.70;;;;;;5075059;28;20107;-73
2021/04/05 10:41:10;;;;;;;4.22;1.20;;;17.30;54.60;;;;;;5088434;28;20031;-73
2021/04/05 10:43:40;;;;;;;2.92;0.90;;;17.50;54.40;;;;;;5094583;28;20052;-73
2021/04/05 10:46:19;;;;;;;6.50;0.70;;;17.60;54.40;;;;;;5093949;28;20043;-73
2021/04/05 10:48:54;;;;;;;4.85;1.23;;;17.70;54.50;;;;;;5095552;28;20044;-74
2021/04/05 10:51:25;;;;;;;4.72;0.93;;;17.80;54.00;;;;;;5089880;28;20056;-73
2021/04/05 10:54:07;;;;;;;6.63;0.77;;;17.90;54.50;;;;;;5080628;28;20042;-74
2021/04/05 10:56:39;;;;;;;4.63;0.77;;;17.90;54.70;;;;;;5095240;28;20101;-74
2021/04/05 10:59:23;;;;;;;7.45;0.80;;;17.90;54.90;;;;;;5094124;28;20068;-74
2021/04/05 11:01:55;;;;;;;2.88;0.50;;;18.00;54.80;;;;;;5089414;28;20473;-74
2021/04/05 11:04:23;;;;;;;5.60;0.70;;;18.00;55.30;;;;;;5095201;28;20055;-75
2021/04/05 11:06:50;;;;;;;5.15;0.73;;;18.10;54.70;;;;;;5093934;28;20346;-73
2021/04/05 11:09:17;;;;;;;3.55;0.45;;;18.10;54.30;;;;;;5095991;28;20059;-72
2021/04/05 11:11:49;;;;;;;2.67;0.50;;;18.20;54.60;;;;;;5096811;28;20059;-72
2021/04/05 11:14:17;;;;;;;3.13;0.47;;;18.20;52.50;;;;;;5098773;28;20054;-74
2021/04/05 11:16:59;;;;;;;6.07;0.90;;;18.30;52.00;;;;;;5080458;28;20366;-75
2021/04/05 11:19:33;;;;;;;5.10;0.80;;;18.30;50.70;;;;;;5098099;28;20090;-73
2021/04/05 11:21:59;;;;;;;3.83;0.77;;;18.30;50.50;;;;;;5097267;28;20040;-74
2021/04/05 11:24:45;;;;;;;6.53;0.85;;;18.40;50.20;;;;;;5094094;28;20054;-73
2021/04/05 11:27:14;;;;;;;6.53;1.10;;;18.50;50.40;;;;;;5091548;28;20059;-72
2021/04/05 11:29:47;;;;;;;6.13;0.75;;;18.50;50.60;;;;;;5099098;28;20039;-73
2021/04/05 11:32:16;;;;;;;9.45;0.90;;;18.60;50.80;;;;;;5095250;28;20089;-72
2021/04/05 11:34:44;;;;;;;6.18;0.90;;;18.50;50.80;;;;;;5098099;28;20050;-72
2021/04/05 11:37:17;;;;;;;6.57;0.75;;;18.60;51.30;;;;;;5097820;28;20346;-72
2021/04/05 11:39:46;;;;;;;5.53;0.80;;;18.60;50.20;;;;;;5098655;28;20358;-71
2021/04/05 11:42:13;;;;;;;6.65;1.25;;;18.60;50.30;;;;;;5096748;28;20104;-71
2021/04/05 11:44:54;;;;;;;7.50;1.05;;;18.60;50.00;;;;;;5096158;28;20455;-72
2021/04/05 11:47:23;;;;;;;6.63;1.17;;;18.60;49.60;;;;;;5105854;28;20035;-73
2021/04/05 11:49:49;;;;;;;6.97;0.90;;;18.50;49.50;;;;;;5113486;28;20036;-72
2021/04/05 11:52:19;;;;;;;8.25;1.17;;;18.50;49.70;;;;;;5097433;28;20056;-72
2021/04/05 11:54:57;;;;;;;2.13;0.90;;;18.50;49.60;;;;;;5090263;28;20113;-72
2021/04/05 11:57:41;;;;;;;4.07;0.90;;;18.50;49.60;;;;;;5093902;28;20107;-72
2021/04/05 12:00:09;;;;;;;;;;;18.50;49.50;;;;;;5092075;28;20056;-71
2021/04/05 12:02:46;;;;;;;6.60;1.15;;;18.50;49.40;;;;;;5092771;28;19917;-73
2021/04/05 12:05:34;;;;;;;5.35;1.08;;;18.50;49.30;;;;;;5096540;28;20385;-73
2021/04/05 12:08:22;;;;;;;8.82;1.27;;;18.50;49.30;;;;;;5098383;28;20133;-72
2021/04/05 12:10:52;;;;;;;6.53;1.08;;;18.50;49.30;;;;;;5098213;28;20058;-73
2021/04/05 12:13:30;;;;;;;3.55;0.90;;;18.60;49.50;;;;;;5098279;28;20072;-72
2021/04/05 12:16:00;;;;;;;8.63;1.05;;;18.60;49.30;;;;;;5096012;28;20039;-72
2021/04/05 12:18:28;;;;;;;5.68;0.88;;;18.50;49.40;;;;;;5098300;28;20435;-71
2021/04/05 12:21:10;;;;;;;6.82;0.65;;;18.50;49.30;;;;;;5097168;28;20051;-72
2021/04/05 12:23:37;;;;;;;4.78;0.65;;;18.50;49.30;;;;;;5097970;28;20334;-72
2021/04/05 12:26:03;;;;;;;4.10;0.80;;;18.40;49.50;;;;;;5095653;28;20059;-72
2021/04/05 12:28:40;;;;;;;4.15;0.80;;;18.50;49.50;;;;;;5097788;28;20083;-72
2021/04/05 12:31:08;;;;;;;4.20;0.65;;;18.50;48.70;;;;;;5097947;28;20435;-73
2021/04/05 12:33:37;;;;;;;5.80;0.88;;;18.50;49.20;;;;;;5096163;28;20040;-73
2021/04/05 12:36:04;;;;;;;4.28;0.70;;;18.50;49.40;;;;;;5096959;28;20093;-72
2021/04/05 12:38:39;;;;;;;3.20;0.80;;;18.40;49.40;;;;;;5097523;28;20458;-72
2021/04/05 12:41:08;;;;;;;5.65;0.88;;;18.40;49.20;;;;;;5097865;28;20101;-72
2021/04/05 12:43:37;;;;;;;3.20;0.95;;;18.50;49.00;;;;;;5095695;28;20048;-73
2021/04/05 12:46:08;;;;;;;5.85;0.70;;;18.50;49.00;;;;;;5096745;28;20112;-73
2021/04/05 12:48:36;;;;;;;4.88;1.00;;;18.50;49.00;;;;;;5096312;28;20032;-73
2021/04/05 12:51:08;;;;;;;4.50;0.80;;;18.50;49.10;;;;;;5076491;28;20053;-72
2021/04/05 12:53:36;;;;;;;2.42;0.50;;;18.50;49.10;;;;;;5080219;28;20047;-73
2021/04/05 12:56:04;;;;;;;5.30;1.00;;;18.40;49.20;;;;;;5096899;28;20439;-72
2021/04/05 12:58:35;;;;;;;5.35;0.40;;;18.50;48.80;;;;;;5096653;28;20388;-73
2021/04/05 13:01:04;;;;;;;5.18;0.80;;;18.50;48.80;;;;;;5097388;28;20485;-72
2021/04/05 13:03:36;;;;;;;4.55;0.80;;;18.50;48.80;;;;;;5093321;28;20094;-74
2021/04/05 13:06:08;;;;;;;4.13;0.75;;;18.50;47.80;;;;;;5077008;28;20040;-71
2021/04/05 13:08:55;;;;;;;6.28;0.88;;;18.40;47.90;;;;;;5077132;28;20067;-74
2021/04/05 13:11:29;;;;;;;4.20;0.73;;;18.40;48.20;;;;;;5092382;28;20144;-74
2021/04/05 13:14:10;;;;;;;6.05;1.13;;;18.50;48.70;;;;;;5077470;28;20135;-80
2021/04/05 13:16:40;;;;;;;5.63;0.70;;;18.30;43.40;;;;;;5076427;28;20075;-74
2021/04/05 13:19:14;;;;;;;6.82;0.73;;;18.20;46.20;;;;;;5076034;28;20036;-75